sensor_id;sensor_type;location;lat;lon;timestamp;temperature;humidity
20463;DHT22;10390;53.566;9.980;2023-04-06T00:01:07;23.40;1.00
20463;DHT22;10390;53.566;9.980;2023-04-06T00:03:33;23.40;1.00
20463;DHT22;10390;53.566;9.980;2023-04-06T00:05:58;23.40;1.00
20463;DHT22;10390;53.566;9.980;2023-04-06T00:08:25;23.40;1.00
20463;DHT22;10390;53.566;9.980;2023-04-06T00:10:50;23.30;1.00
20463;DHT22;10390;53.566;9.980;2023-04-06T00:13:16;23.40;1.00
20463;DHT22;10390;53.566;9.980;2023-04-06T00:15:42;23.40;1.00
20463;DHT22;10390;53.566;9.980;2023-04-06T00:18:07;23.30;1.00
20463;DHT22;10390;53.566;9.980;2023-04-06T00:20:33;23.40;1.00
20463;DHT22;10390;53.566;9.980;2023-04-06T00:22:59;23.30;1.00
20463;DHT22;10390;53.566;9.980;2023-04-06T00:25:25;23.30;1.00
20463;DHT22;10390;53.566;9.980;2023-04-06T00:27:51;23.40;1.00
20463;DHT22;10390;53.566;9.980;2023-04-06T00:30:16;23.40;1.00
20463;DHT22;10390;53.566;9.980;2023-04-06T00:32:42;23.40;1.00
20463;DHT22;10390;53.566;9.980;2023-04-06T00:35:08;23.40;1.00
20463;DHT22;10390;53.566;9.980;2023-04-06T00:37:35;23.40;1.00
20463;DHT22;10390;53.566;9.980;2023-04-06T00:40:01;23.40;1.00
20463;DHT22;10390;53.566;9.980;2023-04-06T00:42:27;23.40;1.00
20463;DHT22;10390;53.566;9.980;2023-04-06T00:44:57;23.40;1.00
20463;DHT22;10390;53.566;9.980;2023-04-06T00:47:23;23.40;1.00
20463;DHT22;10390;53.566;9.980;2023-04-06T00:49:51;23.40;1.00
20463;DHT22;10390;53.566;9.980;2023-04-06T00:52:17;23.50;1.00
20463;DHT22;10390;53.566;9.980;2023-04-06T00:54:43;23.50;1.00
20463;DHT22;10390;53.566;9.980;2023-04-06T00:57:10;23.50;1.00
20463;DHT22;10390;53.566;9.980;2023-04-06T00:59:36;23.60;1.00
20463;DHT22;10390;53.566;9.980;2023-04-06T01:02:02;23.60;1.00
20463;DHT22;10390;53.566;9.980;2023-04-06T01:04:27;23.60;1.00
20463;DHT22;10390;53.566;9.980;2023-04-06T01:06:53;23.60;1.00
20463;DHT22;10390;53.566;9.980;2023-04-06T01:09:19;23.60;1.00
20463;DHT22;10390;53.566;9.980;2023-04-06T01:11:44;23.50;1.00
20463;DHT22;10390;53.566;9.980;2023-04-06T01:14:10;23.50;1.00
20463;DHT22;10390;53.566;9.980;2023-04-06T01:16:37;23.40;1.00
20463;DHT22;10390;53.566;9.980;2023-04-06T01:19:09;23.40;1.00
20463;DHT22;10390;53.566;9.980;2023-04-06T01:21:41;23.30;1.00
20463;DHT22;10390;53.566;9.980;2023-04-06T01:24:08;23.30;1.00
20463;DHT22;10390;53.566;9.980;2023-04-06T01:26:34;23.30;1.00
20463;DHT22;10390;53.566;9.980;2023-04-06T01:29:01;23.30;1.00
20463;DHT22;10390;53.566;9.980;2023-04-06T01:31:27;23.30;1.00
20463;DHT22;10390;53.566;9.980;2023-04-06T01:33:54;23.30;1.00
20463;DHT22;10390;53.566;9.980;2023-04-06T01:36:20;23.20;1.00
20463;DHT22;10390;53.566;9.980;2023-04-06T01:38:46;23.20;1.00
20463;DHT22;10390;53.566;9.980;2023-04-06T01:41:11;23.20;1.00
20463;DHT22;10390;53.566;9.980;2023-04-06T01:43:37;23.20;1.00
20463;DHT22;10390;53.566;9.980;2023-04-06T01:46:03;23.20;1.00
20463;DHT22;10390;53.566;9.980;2023-04-06T01:48:29;23.30;1.00
20463;DHT22;10390;53.566;9.980;2023-04-06T01:50:55;23.20;1.00
20463;DHT22;10390;53.566;9.980;2023-04-06T01:53:21;23.30;1.00
20463;DHT22;10390;53.566;9.980;2023-04-06T01:55:47;23.20;1.00
20463;DHT22;10390;53.566;9.980;2023-04-06T01:58:13;23.30;1.00
20463;DHT22;10390;53.566;9.980;2023-04-06T02:00:39;23.30;1.00
20463;DHT22;10390;53.566;9.980;2023-04-06T02:03:04;23.30;1.00
20463;DHT22;10390;53.566;9.980;2023-04-06T02:05:32;23.30;1.00
20463;DHT22;10390;53.566;9.980;2023-04-06T02:08:06;23.30;1.00
20463;DHT22;10390;53.566;9.980;2023-04-06T02:10:33;23.30;1.00
20463;DHT22;10390;53.566;9.980;2023-04-06T02:12:58;23.30;1.00
20463;DHT22;10390;53.566;9.980;2023-04-06T02:15:24;23.30;1.00
20463;DHT22;10390;53.566;9.980;2023-04-06T02:17:51;23.40;1.00
20463;DHT22;10390;53.566;9.980;2023-04-06T02:20:16;23.40;1.00
20463;DHT22;10390;53.566;9.980;2023-04-06T02:22:42;23.40;1.00
20463;DHT22;10390;53.566;9.980;2023-04-06T02:25:08;23.50;1.00
20463;DHT22;10390;53.566;9.980;2023-04-06T02:27:34;23.50;1.00
20463;DHT22;10390;53.566;9.980;2023-04-06T02:30:00;23.50;1.00
20463;DHT22;10390;53.566;9.980;2023-04-06T02:32:26;23.50;1.00
20463;DHT22;10390;53.566;9.980;2023-04-06T02:34:52;23.50;1.00
20463;DHT22;10390;53.566;9.980;2023-04-06T02:37:17;23.40;1.00
20463;DHT22;10390;53.566;9.980;2023-04-06T02:39:43;23.40;1.00
20463;DHT22;10390;53.566;9.980;2023-04-06T02:42:08;23.30;1.00
20463;DHT22;10390;53.566;9.980;2023-04-06T02:44:34;23.30;1.00
20463;DHT22;10390;53.566;9.980;2023-04-06T02:47:00;23.20;1.00
20463;DHT22;10390;53.566;9.980;2023-04-06T02:49:26;23.20;1.00
20463;DHT22;10390;53.566;9.980;2023-04-06T02:51:51;23.20;1.00
20463;DHT22;10390;53.566;9.980;2023-04-06T02:54:17;23.20;1.00
20463;DHT22;10390;53.566;9.980;2023-04-06T02:56:43;23.20;1.00
20463;DHT22;10390;53.566;9.980;2023-04-06T02:59:09;23.10;1.00
20463;DHT22;10390;53.566;9.980;2023-04-06T03:01:35;23.10;1.00
20463;DHT22;10390;53.566;9.980;2023-04-06T03:04:01;23.10;1.00
20463;DHT22;10390;53.566;9.980;2023-04-06T03:06:27;23.10;1.00
20463;DHT22;10390;53.566;9.980;2023-04-06T03:08:53;23.10;1.00
20463;DHT22;10390;53.566;9.980;2023-04-06T03:11:18;23.10;1.00
20463;DHT22;10390;53.566;9.980;2023-04-06T03:13:45;23.20;1.00
20463;DHT22;10390;53.566;9.980;2023-04-06T03:16:10;23.10;1.00
20463;DHT22;10390;53.566;9.980;2023-04-06T03:18:36;23.10;1.00
20463;DHT22;10390;53.566;9.980;2023-04-06T03:21:01;23.20;1.00
20463;DHT22;10390;53.566;9.980;2023-04-06T03:23:27;23.20;1.00
20463;DHT22;10390;53.566;9.980;2023-04-06T03:25:53;23.20;1.00
20463;DHT22;10390;53.566;9.980;2023-04-06T03:28:18;23.20;1.00
20463;DHT22;10390;53.566;9.980;2023-04-06T03:30:45;23.20;1.00
20463;DHT22;10390;53.566;9.980;2023-04-06T03:33:11;23.20;1.00
20463;DHT22;10390;53.566;9.980;2023-04-06T03:35:36;23.20;1.00
20463;DHT22;10390;53.566;9.980;2023-04-06T03:38:03;23.20;1.00
20463;DHT22;10390;53.566;9.980;2023-04-06T03:40:28;23.20;1.00
20463;DHT22;10390;53.566;9.980;2023-04-06T03:42:54;23.20;1.00
20463;DHT22;10390;53.566;9.980;2023-04-06T03:45:20;23.20;1.00
20463;DHT22;10390;53.566;9.980;2023-04-06T03:47:45;23.30;1.00
20463;DHT22;10390;53.566;9.980;2023-04-06T03:50:11;23.30;1.00
20463;DHT22;10390;53.566;9.980;2023-04-06T03:52:37;23.40;1.00
20463;DHT22;10390;53.566;9.980;2023-04-06T03:55:03;23.40;1.00
20463;DHT22;10390;53.566;9.980;2023-04-06T03:57:28;23.40;1.00
20463;DHT22;10390;53.566;9.980;2023-04-06T03:59:54;23.30;1.00
20463;DHT22;10390;53.566;9.980;2023-04-06T04:02:20;23.30;1.00
20463;DHT22;10390;53.566;9.980;2023-04-06T04:04:45;23.30;1.00
20463;DHT22;10390;53.566;9.980;2023-04-06T04:07:11;23.20;1.00
20463;DHT22;10390;53.566;9.980;2023-04-06T04:09:37;23.20;1.00
20463;DHT22;10390;53.566;9.980;2023-04-06T04:12:02;23.20;1.00
20463;DHT22;10390;53.566;9.980;2023-04-06T04:14:28;23.10;1.00
20463;DHT22;10390;53.566;9.980;2023-04-06T04:16:54;23.10;1.00
20463;DHT22;10390;53.566;9.980;2023-04-06T04:19:19;23.10;1.00
20463;DHT22;10390;53.566;9.980;2023-04-06T04:21:46;23.10;1.00
20463;DHT22;10390;53.566;9.980;2023-04-06T04:24:12;23.10;1.00
20463;DHT22;10390;53.566;9.980;2023-04-06T04:26:39;23.10;1.00
20463;DHT22;10390;53.566;9.980;2023-04-06T04:29:05;23.10;1.00
20463;DHT22;10390;53.566;9.980;2023-04-06T04:31:30;23.10;1.00
20463;DHT22;10390;53.566;9.980;2023-04-06T04:33:57;23.00;1.00
20463;DHT22;10390;53.566;9.980;2023-04-06T04:36:22;23.10;1.00
20463;DHT22;10390;53.566;9.980;2023-04-06T04:38:51;23.10;1.00
20463;DHT22;10390;53.566;9.980;2023-04-06T04:41:16;23.10;1.00
20463;DHT22;10390;53.566;9.980;2023-04-06T04:43:42;23.10;1.00
20463;DHT22;10390;53.566;9.980;2023-04-06T04:46:08;23.10;1.00
20463;DHT22;10390;53.566;9.980;2023-04-06T04:48:34;23.10;1.00
20463;DHT22;10390;53.566;9.980;2023-04-06T04:51:00;23.10;1.00
20463;DHT22;10390;53.566;9.980;2023-04-06T04:53:25;23.10;1.00
20463;DHT22;10390;53.566;9.980;2023-04-06T04:55:51;23.10;1.00
20463;DHT22;10390;53.566;9.980;2023-04-06T04:58:17;23.20;1.00
20463;DHT22;10390;53.566;9.980;2023-04-06T05:00:45;23.10;1.00
20463;DHT22;10390;53.566;9.980;2023-04-06T05:03:21;23.10;1.00
20463;DHT22;10390;53.566;9.980;2023-04-06T05:05:47;23.20;1.00
20463;DHT22;10390;53.566;9.980;2023-04-06T05:08:13;23.10;1.00
20463;DHT22;10390;53.566;9.980;2023-04-06T05:10:39;23.20;1.00
20463;DHT22;10390;53.566;9.980;2023-04-06T05:13:05;23.20;1.00
20463;DHT22;10390;53.566;9.980;2023-04-06T05:15:30;23.20;1.00
20463;DHT22;10390;53.566;9.980;2023-04-06T05:17:56;23.30;1.00
20463;DHT22;10390;53.566;9.980;2023-04-06T05:20:22;23.30;1.00
20463;DHT22;10390;53.566;9.980;2023-04-06T05:22:48;23.30;1.00
20463;DHT22;10390;53.566;9.980;2023-04-06T05:25:14;23.30;1.00
20463;DHT22;10390;53.566;9.980;2023-04-06T05:27:40;23.30;1.00
20463;DHT22;10390;53.566;9.980;2023-04-06T05:30:07;23.30;1.00
20463;DHT22;10390;53.566;9.980;2023-04-06T05:32:33;23.20;1.00
20463;DHT22;10390;53.566;9.980;2023-04-06T05:34:58;23.20;1.00
20463;DHT22;10390;53.566;9.980;2023-04-06T05:37:24;23.20;1.00
20463;DHT22;10390;53.566;9.980;2023-04-06T05:39:50;23.20;1.00
20463;DHT22;10390;53.566;9.980;2023-04-06T05:42:16;23.10;1.00
20463;DHT22;10390;53.566;9.980;2023-04-06T05:44:42;23.10;1.00
20463;DHT22;10390;53.566;9.980;2023-04-06T05:47:07;23.20;1.00
20463;DHT22;10390;53.566;9.980;2023-04-06T05:49:33;23.10;1.00
20463;DHT22;10390;53.566;9.980;2023-04-06T05:52:00;23.10;1.00
20463;DHT22;10390;53.566;9.980;2023-04-06T05:54:27;23.20;1.00
20463;DHT22;10390;53.566;9.980;2023-04-06T05:56:52;23.10;1.00
20463;DHT22;10390;53.566;9.980;2023-04-06T05:59:18;23.20;1.00
20463;DHT22;10390;53.566;9.980;2023-04-06T06:01:44;23.20;1.00
20463;DHT22;10390;53.566;9.980;2023-04-06T06:04:09;23.20;1.00
20463;DHT22;10390;53.566;9.980;2023-04-06T06:06:35;23.20;1.00
20463;DHT22;10390;53.566;9.980;2023-04-06T06:09:02;23.30;1.00
20463;DHT22;10390;53.566;9.980;2023-04-06T06:11:29;23.30;1.00
20463;DHT22;10390;53.566;9.980;2023-04-06T06:13:55;23.40;1.00
20463;DHT22;10390;53.566;9.980;2023-04-06T06:16:21;23.30;1.00
20463;DHT22;10390;53.566;9.980;2023-04-06T06:18:47;23.40;1.00
20463;DHT22;10390;53.566;9.980;2023-04-06T06:21:12;23.40;1.00
20463;DHT22;10390;53.566;9.980;2023-04-06T06:23:38;23.40;1.00
20463;DHT22;10390;53.566;9.980;2023-04-06T06:26:04;23.50;1.00
20463;DHT22;10390;53.566;9.980;2023-04-06T06:28:30;23.50;1.00
20463;DHT22;10390;53.566;9.980;2023-04-06T06:30:56;23.60;1.00
20463;DHT22;10390;53.566;9.980;2023-04-06T06:33:22;23.60;1.00
20463;DHT22;10390;53.566;9.980;2023-04-06T06:35:48;23.60;1.00
20463;DHT22;10390;53.566;9.980;2023-04-06T06:38:13;23.70;1.00
20463;DHT22;10390;53.566;9.980;2023-04-06T06:40:40;23.70;1.00
20463;DHT22;10390;53.566;9.980;2023-04-06T06:43:06;23.70;1.00
20463;DHT22;10390;53.566;9.980;2023-04-06T06:45:32;23.70;1.00
20463;DHT22;10390;53.566;9.980;2023-04-06T06:47:57;23.70;1.00
20463;DHT22;10390;53.566;9.980;2023-04-06T06:50:23;23.80;1.00
20463;DHT22;10390;53.566;9.980;2023-04-06T06:52:49;23.80;1.00
20463;DHT22;10390;53.566;9.980;2023-04-06T06:55:15;23.80;1.00
20463;DHT22;10390;53.566;9.980;2023-04-06T06:57:40;23.90;1.00
20463;DHT22;10390;53.566;9.980;2023-04-06T07:00:08;23.90;1.00
20463;DHT22;10390;53.566;9.980;2023-04-06T07:02:35;23.90;1.00
20463;DHT22;10390;53.566;9.980;2023-04-06T07:05:03;23.90;1.00
20463;DHT22;10390;53.566;9.980;2023-04-06T07:07:31;24.00;1.00
20463;DHT22;10390;53.566;9.980;2023-04-06T07:09:57;24.00;1.00
20463;DHT22;10390;53.566;9.980;2023-04-06T07:12:22;24.00;1.00
20463;DHT22;10390;53.566;9.980;2023-04-06T07:14:48;24.00;1.00
20463;DHT22;10390;53.566;9.980;2023-04-06T07:17:13;24.00;1.00
20463;DHT22;10390;53.566;9.980;2023-04-06T07:19:39;24.00;1.00
20463;DHT22;10390;53.566;9.980;2023-04-06T07:22:06;24.10;1.00
20463;DHT22;10390;53.566;9.980;2023-04-06T07:24:31;24.10;1.00
20463;DHT22;10390;53.566;9.980;2023-04-06T07:26:58;24.10;1.00
20463;DHT22;10390;53.566;9.980;2023-04-06T07:29:24;24.10;1.00
20463;DHT22;10390;53.566;9.980;2023-04-06T07:31:50;24.10;1.00
20463;DHT22;10390;53.566;9.980;2023-04-06T07:34:15;24.20;1.00
20463;DHT22;10390;53.566;9.980;2023-04-06T07:36:41;24.20;1.00
20463;DHT22;10390;53.566;9.980;2023-04-06T07:39:07;24.20;1.00
20463;DHT22;10390;53.566;9.980;2023-04-06T07:41:33;24.20;1.00
20463;DHT22;10390;53.566;9.980;2023-04-06T07:43:58;24.30;1.00
20463;DHT22;10390;53.566;9.980;2023-04-06T07:46:24;24.30;1.00
20463;DHT22;10390;53.566;9.980;2023-04-06T07:48:50;24.30;1.00
20463;DHT22;10390;53.566;9.980;2023-04-06T07:51:16;24.30;1.00
20463;DHT22;10390;53.566;9.980;2023-04-06T07:53:44;24.30;1.00
20463;DHT22;10390;53.566;9.980;2023-04-06T07:56:10;24.40;1.00
20463;DHT22;10390;53.566;9.980;2023-04-06T07:58:36;24.30;1.00
20463;DHT22;10390;53.566;9.980;2023-04-06T08:01:01;24.40;1.00
20463;DHT22;10390;53.566;9.980;2023-04-06T08:03:27;24.40;1.00
20463;DHT22;10390;53.566;9.980;2023-04-06T08:05:53;24.40;1.00
20463;DHT22;10390;53.566;9.980;2023-04-06T08:08:19;24.50;1.00
20463;DHT22;10390;53.566;9.980;2023-04-06T08:10:47;24.40;1.00
20463;DHT22;10390;53.566;9.980;2023-04-06T08:13:13;24.50;1.00
20463;DHT22;10390;53.566;9.980;2023-04-06T08:15:38;24.50;1.00
20463;DHT22;10390;53.566;9.980;2023-04-06T08:18:04;24.50;1.00
20463;DHT22;10390;53.566;9.980;2023-04-06T08:20:30;24.50;1.00
20463;DHT22;10390;53.566;9.980;2023-04-06T08:22:56;24.50;1.00
20463;DHT22;10390;53.566;9.980;2023-04-06T08:25:22;24.50;1.00
20463;DHT22;10390;53.566;9.980;2023-04-06T08:27:47;24.50;1.00
20463;DHT22;10390;53.566;9.980;2023-04-06T08:30:13;24.60;1.00
20463;DHT22;10390;53.566;9.980;2023-04-06T08:32:41;24.60;1.00
20463;DHT22;10390;53.566;9.980;2023-04-06T08:35:07;24.60;1.00
20463;DHT22;10390;53.566;9.980;2023-04-06T08:37:33;24.60;1.00
20463;DHT22;10390;53.566;9.980;2023-04-06T08:39:58;24.70;1.00
20463;DHT22;10390;53.566;9.980;2023-04-06T08:42:25;24.60;1.00
20463;DHT22;10390;53.566;9.980;2023-04-06T08:44:51;24.70;1.00
20463;DHT22;10390;53.566;9.980;2023-04-06T08:47:18;24.70;1.00
20463;DHT22;10390;53.566;9.980;2023-04-06T08:49:44;24.70;1.00
20463;DHT22;10390;53.566;9.980;2023-04-06T08:52:11;24.70;1.00
20463;DHT22;10390;53.566;9.980;2023-04-06T08:54:37;24.70;1.00
20463;DHT22;10390;53.566;9.980;2023-04-06T08:57:04;24.80;1.00
20463;DHT22;10390;53.566;9.980;2023-04-06T08:59:31;24.80;1.00
20463;DHT22;10390;53.566;9.980;2023-04-06T09:01:57;24.80;1.00
20463;DHT22;10390;53.566;9.980;2023-04-06T09:04:23;24.80;1.00
20463;DHT22;10390;53.566;9.980;2023-04-06T09:06:48;24.80;1.00
20463;DHT22;10390;53.566;9.980;2023-04-06T09:09:15;24.90;1.00
20463;DHT22;10390;53.566;9.980;2023-04-06T09:11:46;24.90;1.00
20463;DHT22;10390;53.566;9.980;2023-04-06T09:14:12;24.90;1.00
20463;DHT22;10390;53.566;9.980;2023-04-06T09:16:42;24.90;1.00
20463;DHT22;10390;53.566;9.980;2023-04-06T09:19:08;24.90;1.00
20463;DHT22;10390;53.566;9.980;2023-04-06T09:21:34;24.90;1.00
20463;DHT22;10390;53.566;9.980;2023-04-06T09:24:02;24.90;1.00
20463;DHT22;10390;53.566;9.980;2023-04-06T09:26:28;24.90;1.00
20463;DHT22;10390;53.566;9.980;2023-04-06T09:28:55;25.00;1.00
20463;DHT22;10390;53.566;9.980;2023-04-06T09:31:23;25.00;1.00
20463;DHT22;10390;53.566;9.980;2023-04-06T09:33:50;24.90;1.00
20463;DHT22;10390;53.566;9.980;2023-04-06T09:36:15;25.00;1.00
20463;DHT22;10390;53.566;9.980;2023-04-06T09:41:29;25.10;1.00
20463;DHT22;10390;53.566;9.980;2023-04-06T09:46:34;25.10;1.00
20463;DHT22;10390;53.566;9.980;2023-04-06T09:49:02;25.10;1.00
20463;DHT22;10390;53.566;9.980;2023-04-06T09:51:31;25.10;1.00
20463;DHT22;10390;53.566;9.980;2023-04-06T09:53:57;25.10;1.00
20463;DHT22;10390;53.566;9.980;2023-04-06T09:56:30;25.10;1.00
20463;DHT22;10390;53.566;9.980;2023-04-06T09:59:00;25.10;1.00
20463;DHT22;10390;53.566;9.980;2023-04-06T10:01:28;25.10;1.00
20463;DHT22;10390;53.566;9.980;2023-04-06T10:04:20;25.10;1.00
20463;DHT22;10390;53.566;9.980;2023-04-06T10:06:47;25.10;1.00
20463;DHT22;10390;53.566;9.980;2023-04-06T10:09:18;25.10;1.00
20463;DHT22;10390;53.566;9.980;2023-04-06T10:11:46;25.10;1.00
20463;DHT22;10390;53.566;9.980;2023-04-06T10:14:13;25.10;1.00
20463;DHT22;10390;53.566;9.980;2023-04-06T10:16:39;25.10;1.00
20463;DHT22;10390;53.566;9.980;2023-04-06T10:19:12;25.10;1.00
20463;DHT22;10390;53.566;9.980;2023-04-06T10:21:39;25.10;1.00
20463;DHT22;10390;53.566;9.980;2023-04-06T10:24:09;25.10;1.00
20463;DHT22;10390;53.566;9.980;2023-04-06T10:26:36;25.10;1.00
20463;DHT22;10390;53.566;9.980;2023-04-06T10:29:05;25.10;1.00
20463;DHT22;10390;53.566;9.980;2023-04-06T10:31:31;25.10;1.00
20463;DHT22;10390;53.566;9.980;2023-04-06T10:33:58;25.20;1.00
20463;DHT22;10390;53.566;9.980;2023-04-06T10:36:27;25.20;1.00
20463;DHT22;10390;53.566;9.980;2023-04-06T10:38:58;25.20;1.00
20463;DHT22;10390;53.566;9.980;2023-04-06T10:41:35;25.20;1.00
20463;DHT22;10390;53.566;9.980;2023-04-06T10:44:01;25.20;1.00
20463;DHT22;10390;53.566;9.980;2023-04-06T10:46:29;25.20;1.00
20463;DHT22;10390;53.566;9.980;2023-04-06T10:48:55;25.20;1.00
20463;DHT22;10390;53.566;9.980;2023-04-06T10:51:25;25.20;1.00
20463;DHT22;10390;53.566;9.980;2023-04-06T10:53:53;25.20;1.00
20463;DHT22;10390;53.566;9.980;2023-04-06T10:56:22;25.20;1.00
20463;DHT22;10390;53.566;9.980;2023-04-06T10:58:52;25.20;1.00
20463;DHT22;10390;53.566;9.980;2023-04-06T11:01:20;25.10;1.00
20463;DHT22;10390;53.566;9.980;2023-04-06T11:03:48;25.20;1.00
20463;DHT22;10390;53.566;9.980;2023-04-06T11:06:25;25.20;1.00
20463;DHT22;10390;53.566;9.980;2023-04-06T11:08:53;25.20;1.00
20463;DHT22;10390;53.566;9.980;2023-04-06T11:11:20;25.20;1.00
20463;DHT22;10390;53.566;9.980;2023-04-06T11:13:53;25.20;1.00
20463;DHT22;10390;53.566;9.980;2023-04-06T11:18:54;25.20;1.00
20463;DHT22;10390;53.566;9.980;2023-04-06T11:21:32;25.20;1.00
20463;DHT22;10390;53.566;9.980;2023-04-06T11:24:25;25.20;1.00
20463;DHT22;10390;53.566;9.980;2023-04-06T11:26:52;25.10;1.00
20463;DHT22;10390;53.566;9.980;2023-04-06T11:29:28;25.20;1.00
20463;DHT22;10390;53.566;9.980;2023-04-06T11:31:59;25.20;1.00
20463;DHT22;10390;53.566;9.980;2023-04-06T11:34:27;25.10;1.00
20463;DHT22;10390;53.566;9.980;2023-04-06T11:37:00;25.20;1.00
20463;DHT22;10390;53.566;9.980;2023-04-06T11:39:28;25.20;1.00
20463;DHT22;10390;53.566;9.980;2023-04-06T11:41:58;25.20;1.00
20463;DHT22;10390;53.566;9.980;2023-04-06T11:44:35;25.20;1.00
20463;DHT22;10390;53.566;9.980;2023-04-06T11:47:03;25.20;1.00
20463;DHT22;10390;53.566;9.980;2023-04-06T11:49:29;25.20;1.00
20463;DHT22;10390;53.566;9.980;2023-04-06T11:51:56;25.20;1.00
20463;DHT22;10390;53.566;9.980;2023-04-06T11:54:33;25.20;1.00
20463;DHT22;10390;53.566;9.980;2023-04-06T11:56:59;25.20;1.00
20463;DHT22;10390;53.566;9.980;2023-04-06T11:59:26;25.20;1.00
20463;DHT22;10390;53.566;9.980;2023-04-06T12:01:52;25.20;1.00
20463;DHT22;10390;53.566;9.980;2023-04-06T12:04:19;25.20;1.00
20463;DHT22;10390;53.566;9.980;2023-04-06T12:06:45;25.20;1.00
20463;DHT22;10390;53.566;9.980;2023-04-06T12:09:10;25.30;1.00
20463;DHT22;10390;53.566;9.980;2023-04-06T12:11:36;25.20;1.00
20463;DHT22;10390;53.566;9.980;2023-04-06T12:14:02;25.20;1.00
20463;DHT22;10390;53.566;9.980;2023-04-06T12:16:33;25.30;1.00
20463;DHT22;10390;53.566;9.980;2023-04-06T12:19:00;25.20;1.00
20463;DHT22;10390;53.566;9.980;2023-04-06T12:21:30;25.20;1.00
20463;DHT22;10390;53.566;9.980;2023-04-06T12:23:59;25.30;1.00
20463;DHT22;10390;53.566;9.980;2023-04-06T12:26:26;25.30;1.00
20463;DHT22;10390;53.566;9.980;2023-04-06T12:28:52;25.30;1.00
20463;DHT22;10390;53.566;9.980;2023-04-06T12:31:18;25.30;1.00
20463;DHT22;10390;53.566;9.980;2023-04-06T12:33:48;25.30;1.00
20463;DHT22;10390;53.566;9.980;2023-04-06T12:36:15;25.30;1.00
20463;DHT22;10390;53.566;9.980;2023-04-06T12:38:41;25.30;1.00
20463;DHT22;10390;53.566;9.980;2023-04-06T12:41:07;25.20;1.00
20463;DHT22;10390;53.566;9.980;2023-04-06T12:43:33;25.20;1.00
20463;DHT22;10390;53.566;9.980;2023-04-06T12:45:59;25.20;1.00
20463;DHT22;10390;53.566;9.980;2023-04-06T12:48:25;25.20;1.00
20463;DHT22;10390;53.566;9.980;2023-04-06T12:50:58;25.20;1.00
20463;DHT22;10390;53.566;9.980;2023-04-06T12:53:24;25.20;1.00
20463;DHT22;10390;53.566;9.980;2023-04-06T12:55:49;25.20;1.00
20463;DHT22;10390;53.566;9.980;2023-04-06T12:58:15;25.20;1.00
20463;DHT22;10390;53.566;9.980;2023-04-06T13:00:42;25.20;1.00
20463;DHT22;10390;53.566;9.980;2023-04-06T13:03:08;25.20;1.00
20463;DHT22;10390;53.566;9.980;2023-04-06T13:05:33;25.20;1.00
20463;DHT22;10390;53.566;9.980;2023-04-06T13:07:59;25.10;1.00
20463;DHT22;10390;53.566;9.980;2023-04-06T13:10:24;25.10;1.00
20463;DHT22;10390;53.566;9.980;2023-04-06T13:12:50;25.10;1.00
20463;DHT22;10390;53.566;9.980;2023-04-06T13:15:16;25.10;1.00
20463;DHT22;10390;53.566;9.980;2023-04-06T13:17:42;25.10;1.00
20463;DHT22;10390;53.566;9.980;2023-04-06T13:20:08;25.10;1.00
20463;DHT22;10390;53.566;9.980;2023-04-06T13:22:33;25.10;1.00
20463;DHT22;10390;53.566;9.980;2023-04-06T13:24:59;25.10;1.00
20463;DHT22;10390;53.566;9.980;2023-04-06T13:27:25;25.10;1.00
20463;DHT22;10390;53.566;9.980;2023-04-06T13:29:52;25.10;1.00
20463;DHT22;10390;53.566;9.980;2023-04-06T13:32:18;25.10;1.00
20463;DHT22;10390;53.566;9.980;2023-04-06T13:34:44;25.10;1.00
20463;DHT22;10390;53.566;9.980;2023-04-06T13:37:12;25.00;1.00
20463;DHT22;10390;53.566;9.980;2023-04-06T13:39:38;25.00;1.00
20463;DHT22;10390;53.566;9.980;2023-04-06T13:42:04;25.00;1.00
20463;DHT22;10390;53.566;9.980;2023-04-06T13:44:30;25.00;1.00
20463;DHT22;10390;53.566;9.980;2023-04-06T13:46:56;25.00;1.00
20463;DHT22;10390;53.566;9.980;2023-04-06T13:49:22;24.90;1.00
20463;DHT22;10390;53.566;9.980;2023-04-06T13:51:47;24.90;1.00
20463;DHT22;10390;53.566;9.980;2023-04-06T13:54:13;25.00;1.00
20463;DHT22;10390;53.566;9.980;2023-04-06T13:56:39;24.90;1.00
20463;DHT22;10390;53.566;9.980;2023-04-06T13:59:04;24.90;1.00
20463;DHT22;10390;53.566;9.980;2023-04-06T14:01:30;24.90;1.00
20463;DHT22;10390;53.566;9.980;2023-04-06T14:03:56;24.90;1.00
20463;DHT22;10390;53.566;9.980;2023-04-06T14:06:22;24.90;1.00
20463;DHT22;10390;53.566;9.980;2023-04-06T14:08:47;24.90;1.00
20463;DHT22;10390;53.566;9.980;2023-04-06T14:11:13;24.90;1.00
20463;DHT22;10390;53.566;9.980;2023-04-06T14:13:39;24.90;1.00
20463;DHT22;10390;53.566;9.980;2023-04-06T14:16:06;24.80;1.00
20463;DHT22;10390;53.566;9.980;2023-04-06T14:18:32;24.80;1.00
20463;DHT22;10390;53.566;9.980;2023-04-06T14:20:59;24.80;1.00
20463;DHT22;10390;53.566;9.980;2023-04-06T14:23:29;24.70;1.00
20463;DHT22;10390;53.566;9.980;2023-04-06T14:26:05;24.70;1.00
20463;DHT22;10390;53.566;9.980;2023-04-06T14:28:32;24.70;1.00
20463;DHT22;10390;53.566;9.980;2023-04-06T14:30:59;24.70;1.00
20463;DHT22;10390;53.566;9.980;2023-04-06T14:33:29;24.60;1.00
20463;DHT22;10390;53.566;9.980;2023-04-06T14:35:55;24.60;1.00
20463;DHT22;10390;53.566;9.980;2023-04-06T14:38:21;24.60;1.00
20463;DHT22;10390;53.566;9.980;2023-04-06T14:40:47;24.70;1.00
20463;DHT22;10390;53.566;9.980;2023-04-06T14:43:13;24.70;1.00
20463;DHT22;10390;53.566;9.980;2023-04-06T14:45:39;24.70;1.00
20463;DHT22;10390;53.566;9.980;2023-04-06T14:48:05;24.70;1.00
20463;DHT22;10390;53.566;9.980;2023-04-06T14:50:32;24.60;1.00
20463;DHT22;10390;53.566;9.980;2023-04-06T14:52:59;24.70;1.00
20463;DHT22;10390;53.566;9.980;2023-04-06T14:55:26;24.60;1.00
20463;DHT22;10390;53.566;9.980;2023-04-06T14:57:51;24.70;1.00
20463;DHT22;10390;53.566;9.980;2023-04-06T15:00:17;24.60;1.00
20463;DHT22;10390;53.566;9.980;2023-04-06T15:02:43;24.60;1.00
20463;DHT22;10390;53.566;9.980;2023-04-06T15:05:09;24.60;1.00
20463;DHT22;10390;53.566;9.980;2023-04-06T15:07:34;24.60;1.00
20463;DHT22;10390;53.566;9.980;2023-04-06T15:10:00;24.70;1.00
20463;DHT22;10390;53.566;9.980;2023-04-06T15:12:25;24.60;1.00
20463;DHT22;10390;53.566;9.980;2023-04-06T15:14:51;24.60;1.00
20463;DHT22;10390;53.566;9.980;2023-04-06T15:17:17;24.60;1.00
20463;DHT22;10390;53.566;9.980;2023-04-06T15:19:42;24.60;1.00
20463;DHT22;10390;53.566;9.980;2023-04-06T15:22:08;24.60;1.00
20463;DHT22;10390;53.566;9.980;2023-04-06T15:24:33;24.60;1.00
20463;DHT22;10390;53.566;9.980;2023-04-06T15:26:59;24.60;1.00
20463;DHT22;10390;53.566;9.980;2023-04-06T15:29:25;24.60;1.00
20463;DHT22;10390;53.566;9.980;2023-04-06T15:31:51;24.60;1.00
20463;DHT22;10390;53.566;9.980;2023-04-06T15:34:16;24.50;1.00
20463;DHT22;10390;53.566;9.980;2023-04-06T15:36:42;24.50;1.00
20463;DHT22;10390;53.566;9.980;2023-04-06T15:39:08;24.50;1.00
20463;DHT22;10390;53.566;9.980;2023-04-06T15:41:34;24.50;1.00
20463;DHT22;10390;53.566;9.980;2023-04-06T15:44:01;24.50;1.00
20463;DHT22;10390;53.566;9.980;2023-04-06T15:46:26;24.50;1.00
20463;DHT22;10390;53.566;9.980;2023-04-06T15:48:52;24.50;1.00